createdAt,value
2018-04-22T00:00:06.219Z,14.93
2018-04-22T00:02:34.644Z,14.91
2018-04-22T00:05:03.019Z,14.84
2018-04-22T00:07:31.419Z,14.82
2018-04-22T00:09:59.816Z,14.74
2018-04-22T00:12:28.990Z,14.67
2018-04-22T00:14:57.376Z,14.60
2018-04-22T00:17:25.761Z,14.55
2018-04-22T00:19:54.154Z,14.51
2018-04-22T00:22:22.590Z,14.46
2018-04-22T00:24:51.063Z,14.43
2018-04-22T00:27:19.468Z,14.51
2018-04-22T00:29:47.866Z,14.54
2018-04-22T00:32:16.273Z,14.45
2018-04-22T00:34:44.728Z,14.44
2018-04-22T00:37:13.125Z,14.35
2018-04-22T00:39:41.538Z,14.35
2018-04-22T00:42:10.700Z,14.27
2018-04-22T00:44:39.854Z,14.20
2018-04-22T00:47:08.247Z,14.21
2018-04-22T00:49:36.629Z,14.19
2018-04-22T00:52:05.019Z,14.14
2018-04-22T00:54:33.405Z,14.07
2018-04-22T00:57:01.820Z,14.09
2018-04-22T00:59:30.206Z,14.10
2018-04-22T01:01:58.597Z,14.07
2018-04-22T01:04:26.996Z,14.10
2018-04-22T01:06:55.402Z,14.04
2018-04-22T01:09:23.812Z,14.00
2018-04-22T01:11:52.194Z,13.99
2018-04-22T01:14:20.607Z,13.93
2018-04-22T01:16:49.015Z,13.88
2018-04-22T01:19:17.435Z,13.86
2018-04-22T01:21:45.821Z,13.88
2018-04-22T01:24:14.205Z,13.86
2018-04-22T01:26:42.697Z,13.78
2018-04-22T01:29:11.082Z,13.80
2018-04-22T01:31:39.472Z,13.79
2018-04-22T01:34:07.884Z,13.76
2018-04-22T01:36:36.273Z,13.76
2018-04-22T01:39:04.678Z,13.73
2018-04-22T01:41:33.837Z,13.71
2018-04-22T01:44:02.234Z,13.71
2018-04-22T01:46:30.645Z,13.66
2018-04-22T01:48:59.814Z,13.69
2018-04-22T01:51:28.259Z,13.60
2018-04-22T01:53:56.661Z,13.61
2018-04-22T01:56:25.046Z,13.62
2018-04-22T01:58:53.449Z,13.63
2018-04-22T02:01:21.878Z,13.57
2018-04-22T02:03:51.057Z,13.60
2018-04-22T02:06:19.486Z,13.54
2018-04-22T02:08:47.912Z,13.54
2018-04-22T02:11:16.452Z,13.56
2018-04-22T02:13:44.864Z,13.54
2018-04-22T02:16:13.262Z,13.54
2018-04-22T02:18:41.652Z,13.49
2018-04-22T02:21:10.037Z,13.46
2018-04-22T02:23:38.491Z,13.45
2018-04-22T02:26:06.905Z,13.46
2018-04-22T02:28:35.347Z,13.43
2018-04-22T02:31:03.742Z,13.44
2018-04-22T02:33:32.128Z,13.44
2018-04-22T02:36:00.688Z,13.43
2018-04-22T02:38:29.143Z,13.44
2018-04-22T02:40:58.323Z,13.42
2018-04-22T02:43:26.706Z,13.41
2018-04-22T02:45:55.118Z,13.38
2018-04-22T02:48:24.279Z,13.38
2018-04-22T02:50:52.680Z,13.39
2018-04-22T02:53:21.091Z,13.35
2018-04-22T02:55:49.501Z,13.32
2018-04-22T02:58:18.018Z,13.30
2018-04-22T03:00:46.471Z,13.33
2018-04-22T03:03:14.865Z,13.31
2018-04-22T03:05:44.203Z,13.29
2018-04-22T03:08:12.602Z,13.25
2018-04-22T03:10:41.787Z,13.26
2018-04-22T03:13:10.174Z,13.27
2018-04-22T03:15:38.568Z,13.26
2018-04-22T03:18:07.734Z,13.24
2018-04-22T03:20:36.134Z,13.21
2018-04-22T03:23:04.565Z,13.19
2018-04-22T03:25:32.960Z,13.18
2018-04-22T03:28:01.387Z,13.15
2018-04-22T03:30:29.849Z,13.17
2018-04-22T03:32:58.237Z,13.22
2018-04-22T03:35:26.650Z,13.22
2018-04-22T03:37:55.801Z,13.22
2018-04-22T03:40:24.215Z,13.25
2018-04-22T03:42:52.602Z,13.35
2018-04-22T03:45:20.991Z,13.46
2018-04-22T03:47:49.386Z,13.60
2018-04-22T03:50:18.595Z,13.89
2018-04-22T03:52:47.778Z,13.96
2018-04-22T03:55:16.175Z,14.02
2018-04-22T03:57:44.794Z,13.98
2018-04-22T04:00:13.209Z,13.94
2018-04-22T04:02:41.613Z,13.96
2018-04-22T04:05:10.022Z,13.95
2018-04-22T04:07:39.176Z,13.93
2018-04-22T04:10:07.561Z,13.90
2018-04-22T04:12:35.954Z,14.02
2018-04-22T04:15:04.369Z,14.22
2018-04-22T04:17:33.519Z,14.29
2018-04-22T04:20:19.522Z,14.38
2018-04-22T04:22:47.894Z,14.54
2018-04-22T04:25:45.558Z,14.51
2018-04-22T04:28:13.968Z,14.54
2018-04-22T04:30:43.163Z,14.50
2018-04-22T04:33:12.413Z,14.56
2018-04-22T04:35:40.795Z,14.61
2018-04-22T04:38:09.268Z,14.77
2018-04-22T04:40:37.670Z,14.82
2018-04-22T04:43:06.046Z,14.99
2018-04-22T04:45:34.525Z,15.05
2018-04-22T04:48:02.999Z,15.15
2018-04-22T04:50:31.389Z,15.14
2018-04-22T04:52:59.767Z,15.00
2018-04-22T04:55:28.207Z,15.09
2018-04-22T04:57:56.587Z,15.21
2018-04-22T05:00:24.996Z,15.28
2018-04-22T05:02:54.226Z,15.43
2018-04-22T05:05:22.750Z,15.43
2018-04-22T05:07:51.133Z,15.60
2018-04-22T05:10:19.518Z,15.48
2018-04-22T05:12:47.910Z,15.71
2018-04-22T05:15:16.373Z,15.72
2018-04-22T05:17:44.774Z,15.85
2018-04-22T05:20:13.176Z,15.88
2018-04-22T05:22:41.561Z,15.92
2018-04-22T05:25:10.741Z,16.09
2018-04-22T05:27:39.147Z,16.09
2018-04-22T05:30:08.306Z,16.14
2018-04-22T05:32:37.459Z,16.29
2018-04-22T05:35:06.668Z,16.42
2018-04-22T05:37:35.067Z,16.58
2018-04-22T05:40:03.480Z,16.75
2018-04-22T05:42:31.902Z,16.84
2018-04-22T05:45:01.059Z,16.78
2018-04-22T05:47:29.452Z,16.95
2018-04-22T05:49:57.837Z,17.07
2018-04-22T05:52:26.246Z,17.18
2018-04-22T05:54:54.661Z,17.33
2018-04-22T05:57:23.830Z,17.34
2018-04-22T05:59:52.326Z,17.42
2018-04-22T06:02:21.513Z,17.50
2018-04-22T06:04:49.901Z,17.71
2018-04-22T06:07:18.317Z,17.77
2018-04-22T06:09:46.697Z,18.00
2018-04-22T06:12:15.139Z,18.19
2018-04-22T06:14:43.527Z,18.12
2018-04-22T06:17:11.957Z,18.34
2018-04-22T06:19:40.346Z,18.78
2018-04-22T06:22:08.757Z,18.86
2018-04-22T06:24:37.169Z,19.03
2018-04-22T06:27:05.584Z,18.90
2018-04-22T06:29:34.043Z,19.44
2018-04-22T06:32:03.208Z,19.57
2018-04-22T06:34:31.629Z,19.83
2018-04-22T06:37:00.814Z,20.18
2018-04-22T06:39:29.208Z,20.98
2018-04-22T06:41:57.595Z,21.32
2018-04-22T06:44:25.979Z,21.95
2018-04-22T06:46:54.482Z,22.08
2018-04-22T06:49:23.657Z,21.86
2018-04-22T06:51:52.140Z,22.00
2018-04-22T06:54:20.551Z,22.46
2018-04-22T06:56:49.713Z,23.37
2018-04-22T06:59:18.119Z,23.59
2018-04-22T07:01:46.547Z,23.47
2018-04-22T07:04:14.945Z,22.78
2018-04-22T07:06:43.334Z,23.16
2018-04-22T07:09:11.737Z,23.28
2018-04-22T07:11:40.228Z,23.29
2018-04-22T07:14:08.651Z,23.15
2018-04-22T07:16:37.448Z,23.23
2018-04-22T07:19:05.943Z,23.36
2018-04-22T07:21:34.339Z,23.25
2018-04-22T07:24:02.867Z,23.29
2018-04-22T07:26:31.274Z,23.90
2018-04-22T07:29:00.440Z,23.95
2018-04-22T07:31:28.884Z,24.30
2018-04-22T07:33:57.295Z,24.47
2018-04-22T07:36:25.741Z,24.59
2018-04-22T07:38:54.154Z,24.94
2018-04-22T07:41:22.576Z,24.62
2018-04-22T07:43:51.863Z,25.60
2018-04-22T07:46:21.351Z,25.54
2018-04-22T07:48:49.812Z,25.81
2018-04-22T07:51:19.228Z,26.35
2018-04-22T07:53:47.687Z,27.20
2018-04-22T07:56:17.069Z,27.34
2018-04-22T07:58:46.278Z,27.31
2018-04-22T08:01:15.477Z,27.44
2018-04-22T08:03:43.869Z,27.50
2018-04-22T08:06:13.046Z,27.34
2018-04-22T08:08:41.457Z,28.43
2018-04-22T08:11:10.683Z,29.18
2018-04-22T08:13:39.504Z,29.12
2018-04-22T08:16:07.942Z,28.72
2018-04-22T08:18:37.180Z,28.55
2018-04-22T08:21:05.606Z,29.75
2018-04-22T08:23:34.013Z,29.66
2018-04-22T08:26:03.195Z,30.83
2018-04-22T08:28:32.399Z,30.05
2018-04-22T08:31:00.785Z,30.07
2018-04-22T08:33:29.958Z,30.47
2018-04-22T08:35:58.346Z,30.09
2018-04-22T08:38:26.762Z,29.86
2018-04-22T08:40:56.341Z,30.11
2018-04-22T08:43:24.740Z,29.93
2018-04-22T08:45:53.945Z,30.73
2018-04-22T08:48:22.367Z,31.22
2018-04-22T08:50:50.771Z,31.56
2018-04-22T08:53:19.193Z,31.27
2018-04-22T08:55:48.373Z,31.51
2018-04-22T08:58:16.802Z,30.86
2018-04-22T09:00:45.209Z,30.68
2018-04-22T09:03:13.628Z,31.32
2018-04-22T09:05:42.077Z,31.22
2018-04-22T09:08:10.581Z,30.96
2018-04-22T09:10:39.012Z,31.05
2018-04-22T09:13:08.508Z,31.62
2018-04-22T09:15:37.690Z,32.08
2018-04-22T09:18:06.193Z,32.04
2018-04-22T09:20:34.594Z,32.59
2018-04-22T09:23:03.746Z,32.12
2018-04-22T09:25:32.163Z,32.36
2018-04-22T09:28:00.698Z,33.24
2018-04-22T09:30:30.006Z,33.78
2018-04-22T09:32:58.432Z,33.58
2018-04-22T09:35:26.840Z,34.03
2018-04-22T09:37:56.035Z,33.48
2018-04-22T09:40:25.249Z,33.54
2018-04-22T09:42:54.450Z,33.19
2018-04-22T09:45:22.973Z,33.09
2018-04-22T09:47:52.385Z,33.58
2018-04-22T09:50:20.863Z,34.52
2018-04-22T09:52:49.306Z,33.80
2018-04-22T09:55:18.552Z,33.50
2018-04-22T09:57:47.061Z,33.79
2018-04-22T10:00:20.951Z,33.80
2018-04-22T10:02:49.407Z,33.72
2018-04-22T10:05:22.763Z,33.37
2018-04-22T10:07:51.182Z,34.05
2018-04-22T10:10:19.577Z,33.87
2018-04-22T10:12:47.973Z,33.76
2018-04-22T10:15:16.409Z,33.86
2018-04-22T10:17:45.591Z,34.33
2018-04-22T10:20:14.933Z,33.21
2018-04-22T10:22:44.154Z,31.33
2018-04-22T10:25:12.652Z,33.41
2018-04-22T10:27:41.046Z,34.24
2018-04-22T10:30:09.469Z,32.74
2018-04-22T10:32:37.901Z,33.27
2018-04-22T10:35:06.355Z,32.71
2018-04-22T10:37:35.510Z,34.65
2018-04-22T10:40:05.002Z,34.78
2018-04-22T10:42:33.447Z,33.05
2018-04-22T10:45:02.621Z,33.26
2018-04-22T10:47:31.058Z,33.14
2018-04-22T10:49:59.454Z,33.26
2018-04-22T10:52:28.748Z,33.96
2018-04-22T10:54:59.108Z,34.82
2018-04-22T10:57:27.606Z,35.04
2018-04-22T10:59:56.053Z,35.17
2018-04-22T11:02:24.517Z,34.58
2018-04-22T11:04:52.906Z,35.03
2018-04-22T11:07:21.339Z,34.01
2018-04-22T11:09:49.734Z,34.32
2018-04-22T11:12:18.428Z,32.94
2018-04-22T11:14:47.695Z,34.04
2018-04-22T11:17:16.095Z,34.93
2018-04-22T11:19:44.551Z,34.05
2018-04-22T11:22:12.955Z,33.37
2018-04-22T11:24:42.239Z,34.34
2018-04-22T11:27:11.019Z,34.66
2018-04-22T11:29:39.503Z,34.06
2018-04-22T11:32:09.619Z,35.37
2018-04-22T11:34:38.102Z,33.93
2018-04-22T11:37:06.814Z,34.41
2018-04-22T11:39:35.218Z,34.63
2018-04-22T11:42:03.636Z,33.79
2018-04-22T11:44:32.152Z,33.71
2018-04-22T11:47:00.550Z,34.15
2018-04-22T11:49:28.931Z,34.91
2018-04-22T11:51:57.368Z,33.59
2018-04-22T11:54:26.671Z,33.94
2018-04-22T11:56:55.877Z,33.87
2018-04-22T11:59:24.307Z,34.63
2018-04-22T12:01:52.725Z,33.95
2018-04-22T12:04:21.208Z,33.86
2018-04-22T12:06:49.638Z,34.13
2018-04-22T12:09:18.860Z,34.13
2018-04-22T12:11:47.265Z,34.25
2018-04-22T12:14:15.661Z,34.29
2018-04-22T12:16:44.058Z,34.67
2018-04-22T12:19:12.456Z,34.85
2018-04-22T12:21:41.625Z,35.05
2018-04-22T12:24:10.042Z,34.21
2018-04-22T12:26:38.481Z,34.54
2018-04-22T12:29:06.899Z,33.64
2018-04-22T12:31:37.609Z,31.83
2018-04-22T12:34:06.069Z,31.51
2018-04-22T12:36:34.534Z,29.75
2018-04-22T12:39:02.909Z,29.60
2018-04-22T12:41:37.823Z,28.89
2018-04-22T12:44:10.699Z,28.43
2018-04-22T12:46:39.123Z,28.28
2018-04-22T12:49:07.521Z,28.16
2018-04-22T12:51:35.914Z,27.89
2018-04-22T12:54:04.308Z,27.88
2018-04-22T12:56:32.711Z,27.43
2018-04-22T12:59:01.175Z,27.24
2018-04-22T13:01:29.562Z,27.31
2018-04-22T13:03:57.979Z,27.31
2018-04-22T13:06:27.140Z,27.09
2018-04-22T13:08:55.528Z,26.74
2018-04-22T13:11:23.979Z,25.42
2018-04-22T13:13:52.387Z,22.80
2018-04-22T13:16:20.848Z,19.61
2018-04-22T13:18:49.239Z,17.98
2018-04-22T13:21:18.222Z,17.48
2018-04-22T13:23:46.621Z,17.37
2018-04-22T13:26:15.027Z,17.22
2018-04-22T13:28:43.426Z,17.21
2018-04-22T13:31:11.846Z,17.54
2018-04-22T13:33:41.013Z,17.89
2018-04-22T13:36:09.398Z,18.36
2018-04-22T13:38:37.919Z,18.47
2018-04-22T13:41:06.327Z,18.86
2018-04-22T13:43:34.762Z,18.87
2018-04-22T13:46:03.188Z,19.47
2018-04-22T13:48:31.579Z,19.93
2018-04-22T13:50:59.981Z,20.12
2018-04-22T13:53:30.085Z,21.31
2018-04-22T13:55:58.515Z,21.91
2018-04-22T13:58:27.023Z,21.85
2018-04-22T14:00:56.182Z,21.61
2018-04-22T14:03:24.651Z,21.64
2018-04-22T14:05:53.040Z,21.57
2018-04-22T14:08:21.491Z,21.13
2018-04-22T14:10:50.657Z,20.85
2018-04-22T14:13:19.031Z,20.53
2018-04-22T14:15:47.462Z,20.43
2018-04-22T14:18:15.881Z,20.27
2018-04-22T14:20:44.262Z,20.20
2018-04-22T14:23:12.667Z,20.36
2018-04-22T14:25:41.084Z,20.26
2018-04-22T14:28:09.497Z,19.97
2018-04-22T14:30:37.901Z,19.87
2018-04-22T14:33:06.322Z,19.95
2018-04-22T14:35:35.493Z,20.42
2018-04-22T14:38:03.944Z,20.61
2018-04-22T14:40:32.275Z,20.22
2018-04-22T14:43:00.701Z,20.02
2018-04-22T14:45:46.908Z,20.38
2018-04-22T14:48:15.311Z,20.11
2018-04-22T14:50:43.798Z,20.26
2018-04-22T14:53:12.142Z,20.52
2018-04-22T14:55:40.656Z,21.01
2018-04-22T14:58:09.065Z,20.79
2018-04-22T15:00:37.473Z,20.48
2018-04-22T15:03:06.629Z,20.02
2018-04-22T15:05:35.035Z,20.10
2018-04-22T15:08:03.425Z,20.28
2018-04-22T15:10:31.842Z,20.45
2018-04-22T15:13:00.257Z,21.15
2018-04-22T15:15:28.667Z,21.48
2018-04-22T15:17:57.100Z,20.98
2018-04-22T15:20:25.583Z,20.74
2018-04-22T15:22:54.071Z,20.45
2018-04-22T15:25:22.459Z,20.27
2018-04-22T15:27:50.851Z,20.21
2018-04-22T15:30:19.271Z,20.28
2018-04-22T15:32:47.685Z,20.00
2018-04-22T15:35:16.874Z,20.26
2018-04-22T15:37:45.354Z,20.49
2018-04-22T15:40:13.752Z,20.60
2018-04-22T15:42:42.937Z,21.14
2018-04-22T15:45:11.356Z,21.71
2018-04-22T15:47:39.877Z,22.22
2018-04-22T15:50:08.330Z,21.82
2018-04-22T15:52:36.810Z,21.97
2018-04-22T15:55:05.209Z,21.31
2018-04-22T15:57:33.611Z,21.10
2018-04-22T16:00:02.859Z,21.14
2018-04-22T16:02:32.059Z,20.63
2018-04-22T16:05:00.461Z,20.01
2018-04-22T16:07:28.893Z,19.76
2018-04-22T16:09:57.305Z,19.95
2018-04-22T16:12:25.713Z,19.95
2018-04-22T16:14:54.116Z,19.91
2018-04-22T16:17:22.575Z,20.20
2018-04-22T16:19:51.766Z,20.34
2018-04-22T16:22:20.938Z,20.07
2018-04-22T16:24:49.394Z,19.71
2018-04-22T16:27:17.764Z,19.85
2018-04-22T16:29:46.200Z,20.07
2018-04-22T16:32:14.606Z,20.04
2018-04-22T16:34:43.843Z,19.83
2018-04-22T16:37:12.270Z,19.86
2018-04-22T16:39:40.728Z,19.81
2018-04-22T16:42:09.118Z,19.99
2018-04-22T16:44:37.559Z,19.77
2018-04-22T16:47:06.726Z,19.55
2018-04-22T16:49:35.137Z,19.38
2018-04-22T16:52:04.371Z,19.30
2018-04-22T16:54:32.766Z,19.66
2018-04-22T16:57:01.196Z,19.79
2018-04-22T16:59:30.389Z,20.03
2018-04-22T17:01:59.573Z,20.22
2018-04-22T17:04:27.980Z,20.33
2018-04-22T17:06:57.163Z,20.30
2018-04-22T17:09:25.580Z,20.23
2018-04-22T17:11:54.814Z,20.44
2018-04-22T17:14:23.226Z,20.48
2018-04-22T17:16:51.622Z,20.41
2018-04-22T17:19:20.058Z,20.38
2018-04-22T17:21:48.472Z,20.44
2018-04-22T17:24:17.654Z,20.55
2018-04-22T17:26:46.063Z,20.45
2018-04-22T17:29:14.489Z,20.34
2018-04-22T17:31:42.901Z,20.22
2018-04-22T17:34:11.288Z,20.22
2018-04-22T17:36:39.682Z,20.19
2018-04-22T17:39:08.134Z,20.28
2018-04-22T17:41:36.550Z,20.35
2018-04-22T17:44:04.969Z,20.37
2018-04-22T17:46:33.466Z,20.34
2018-04-22T17:49:02.630Z,20.45
2018-04-22T17:51:31.018Z,20.49
2018-04-22T17:53:59.429Z,20.72
2018-04-22T17:56:28.613Z,20.50
2018-04-22T17:58:57.042Z,20.47
2018-04-22T18:01:25.483Z,20.45
2018-04-22T18:03:54.214Z,20.35
2018-04-22T18:06:22.650Z,20.21
2018-04-22T18:08:51.046Z,20.18
2018-04-22T18:11:19.447Z,20.24
2018-04-22T18:13:48.641Z,20.18
2018-04-22T18:16:18.077Z,20.16
2018-04-22T18:18:46.561Z,20.26
2018-04-22T18:21:14.979Z,20.08
2018-04-22T18:23:43.397Z,19.99
2018-04-22T18:26:11.786Z,19.84
2018-04-22T18:28:41.897Z,19.94
2018-04-22T18:31:10.306Z,19.91
2018-04-22T18:33:39.578Z,19.81
2018-04-22T18:36:08.894Z,19.70
2018-04-22T18:38:37.332Z,19.57
2018-04-22T18:41:06.447Z,19.53
2018-04-22T18:43:34.854Z,19.51
2018-04-22T18:46:03.255Z,19.52
2018-04-22T18:48:32.454Z,19.49
2018-04-22T18:51:01.659Z,19.39
2018-04-22T18:53:30.074Z,19.13
2018-04-22T18:55:58.522Z,18.90
2018-04-22T18:58:27.007Z,18.82
2018-04-22T19:00:55.426Z,18.87
2018-04-22T19:03:24.121Z,18.90
2018-04-22T19:05:52.618Z,19.09
2018-04-22T19:08:21.108Z,19.17
2018-04-22T19:10:49.522Z,19.17
2018-04-22T19:13:17.949Z,19.40
2018-04-22T19:15:46.372Z,19.38
2018-04-22T19:18:14.790Z,19.45
2018-04-22T19:20:43.952Z,19.37
2018-04-22T19:23:12.347Z,19.23
2018-04-22T19:25:40.862Z,19.20
2018-04-22T19:28:10.027Z,19.22
2018-04-22T19:30:38.553Z,19.06
2018-04-22T19:33:07.780Z,19.02
2018-04-22T19:35:36.161Z,18.98
2018-04-22T19:38:04.594Z,18.91
2018-04-22T19:40:37.403Z,18.92
2018-04-22T19:43:06.633Z,18.91
2018-04-22T19:45:35.135Z,18.79
2018-04-22T19:48:03.666Z,18.89
2018-04-22T19:50:33.179Z,18.81
2018-04-22T19:53:01.659Z,18.59
2018-04-22T19:55:30.088Z,18.38
2018-04-22T19:58:00.105Z,18.11
2018-04-22T20:00:28.638Z,17.82
2018-04-22T20:02:59.629Z,17.57
2018-04-22T20:05:28.311Z,17.31
2018-04-22T20:07:56.736Z,17.12
2018-04-22T20:10:25.142Z,16.94
2018-04-22T20:12:53.590Z,16.77
2018-04-22T20:15:22.023Z,16.64
2018-04-22T20:17:50.420Z,16.55
2018-04-22T20:20:20.480Z,16.44
2018-04-22T20:22:48.950Z,16.37
2018-04-22T20:25:17.370Z,16.34
2018-04-22T20:27:48.136Z,16.32
2018-04-22T20:30:18.768Z,16.43
2018-04-22T20:32:50.423Z,16.70
2018-04-22T20:35:25.559Z,16.90
2018-04-22T20:37:53.975Z,17.12
2018-04-22T20:40:22.374Z,17.22
2018-04-22T20:42:50.806Z,17.26
2018-04-22T20:45:20.336Z,17.26
2018-04-22T20:47:49.519Z,17.28
2018-04-22T20:50:17.959Z,17.29
2018-04-22T20:52:46.406Z,17.35
2018-04-22T20:55:15.582Z,17.37
2018-04-22T20:57:44.319Z,17.43
2018-04-22T21:00:12.752Z,17.43
2018-04-22T21:02:41.250Z,17.38
2018-04-22T21:05:09.922Z,17.38
2018-04-22T21:07:38.321Z,17.31
2018-04-22T21:10:06.848Z,17.26
2018-04-22T21:12:35.241Z,17.18
2018-04-22T21:15:03.673Z,17.10
2018-04-22T21:17:32.094Z,17.16
2018-04-22T21:20:00.534Z,16.96
2018-04-22T21:22:28.950Z,16.86
2018-04-22T21:24:58.064Z,16.74
2018-04-22T21:27:26.561Z,16.58
2018-04-22T21:29:55.006Z,16.48
2018-04-22T21:32:23.425Z,16.53
2018-04-22T21:34:51.835Z,16.36
2018-04-22T21:37:20.244Z,16.24
2018-04-22T21:39:48.717Z,16.35
2018-04-22T21:42:17.138Z,16.14
2018-04-22T21:44:46.335Z,16.01
2018-04-22T21:47:15.530Z,15.93
2018-04-22T21:49:43.909Z,15.85
2018-04-22T21:52:12.318Z,15.98
2018-04-22T21:54:41.478Z,16.05
2018-04-22T21:57:09.874Z,16.16
2018-04-22T21:59:38.298Z,16.24
2018-04-22T22:02:06.675Z,16.34
2018-04-22T22:04:35.073Z,16.36
2018-04-22T22:07:03.551Z,16.28
2018-04-22T22:09:31.937Z,16.18
2018-04-22T22:12:00.350Z,16.14
2018-04-22T22:14:28.769Z,16.10
2018-04-22T22:16:57.921Z,16.03
2018-04-22T22:19:26.305Z,15.96
2018-04-22T22:21:54.738Z,15.92
2018-04-22T22:24:23.969Z,15.87
2018-04-22T22:26:52.361Z,15.82
2018-04-22T22:29:20.799Z,15.71
2018-04-22T22:31:49.234Z,15.57
2018-04-22T22:34:17.636Z,15.48
2018-04-22T22:36:46.366Z,15.48
2018-04-22T22:39:14.980Z,15.60
2018-04-22T22:41:43.435Z,15.66
2018-04-22T22:44:12.636Z,15.74
2018-04-22T22:46:41.022Z,15.81
2018-04-22T22:49:10.204Z,15.93
2018-04-22T22:51:38.660Z,15.90
2018-04-22T22:54:07.146Z,15.86
2018-04-22T22:56:35.565Z,15.84
2018-04-22T22:59:03.974Z,15.77
2018-04-22T23:01:33.120Z,15.66
2018-04-22T23:04:01.513Z,15.56
2018-04-22T23:06:30.650Z,15.45
2018-04-22T23:08:59.134Z,15.38
2018-04-22T23:11:28.304Z,15.39
2018-04-22T23:13:57.535Z,15.36
2018-04-22T23:16:26.701Z,15.50
2018-04-22T23:18:55.088Z,15.63
2018-04-22T23:21:23.529Z,15.70
2018-04-22T23:23:51.922Z,15.72
2018-04-22T23:26:20.326Z,15.73
2018-04-22T23:28:48.717Z,15.77
2018-04-22T23:31:17.908Z,15.80
2018-04-22T23:33:46.309Z,15.89
2018-04-22T23:36:14.686Z,16.03
2018-04-22T23:38:43.091Z,16.19
2018-04-22T23:41:11.543Z,16.46
2018-04-22T23:43:39.957Z,16.70
2018-04-22T23:46:08.372Z,16.82
2018-04-22T23:48:37.524Z,17.11
2018-04-22T23:51:05.931Z,17.45
2018-04-22T23:53:34.324Z,17.62
2018-04-22T23:56:03.471Z,17.74
2018-04-22T23:58:31.853Z,17.44
